»·PEaware :: N522X KUDD-KBLH

N522X :: KUDD-KBLH

FLIGHT INFORMATION

Flight Status: Arrived
Operator: Privately registered:
United States
More flights under this callsign
Pilot: Rick S. (2164)
Aircraft: PIPER PA-24 COMMANCHE
(PA24)
More flights by this aircraft type
Origin: KUDD Bermuda Dunes
United States
Destination: KBLH Blythe
United States
More flights between these airports :: More routes between these airports
Route:
File this flight plan on PilotEdge
Remarks:
Altitude:
(Current/Filed)
7,500ft
Speed:
(Current/Filed)
150kts
Departed: 04-Mar-18 10:49 AM
Arrived: 04-Mar-18 11:22 AM
Distance/Time
Traveled:
78nm/0:33
Distance/Time
To Go:
Arrived

Flight Plot

Page will automatically refresh every two minutes.

Flight plan parsing failed; only flown route is shown


Map Options




Map Legend


Flown Route
Filed Route
Departure Airport
Arrival Airport
Navaid (VOR, NDB)
Fix

Horizontal Profiles

Position Reports

Time Latitude Longitude Heading Altitude Ground
Speed
04-Mar-18 10:45 33.745062 -116.269353 323 76ft 0kts
04-Mar-18 10:46 33.745063 -116.269353 323 76ft 0kts
04-Mar-18 10:47 33.745064 -116.269354 323 76ft 0kts
04-Mar-18 10:48 33.745066 -116.269356 323 76ft 0kts
04-Mar-18 10:49 33.745068 -116.269357 323 76ft 0kts
04-Mar-18 10:50 33.745070 -116.269359 323 76ft 0kts
04-Mar-18 10:51 33.744878 -116.267847 334 76ft 0kts
04-Mar-18 10:52 33.744882 -116.267850 334 76ft 0kts
04-Mar-18 10:53 33.744885 -116.267851 334 76ft 0kts
04-Mar-18 10:54 33.744888 -116.267853 334 76ft 0kts
04-Mar-18 10:55 33.746048 -116.268914 295 76ft 37kts
04-Mar-18 10:56 33.753995 -116.295272 236 951ft 105kts
04-Mar-18 10:57 33.730414 -116.268758 123 1784ft 137kts
04-Mar-18 10:58 33.714702 -116.230470 86 2958ft 120kts
04-Mar-18 10:59 33.713492 -116.190410 92 4411ft 122kts
04-Mar-18 11:00 33.715939 -116.149556 82 5993ft 122kts
04-Mar-18 11:01 33.718304 -116.106870 91 7403ft 132kts
04-Mar-18 11:02 33.715650 -116.053407 93 7617ft 175kts
04-Mar-18 11:03 33.704616 -115.997141 114 7549ft 175kts
04-Mar-18 11:04 33.684811 -115.945639 113 7542ft 166kts
04-Mar-18 11:05 33.665047 -115.893606 114 7708ft 174kts
04-Mar-18 11:06 33.644405 -115.840597 113 7741ft 176kts
04-Mar-18 11:07 33.624074 -115.788058 113 7589ft 168kts
04-Mar-18 11:08 33.605377 -115.735138 102 7627ft 174kts
04-Mar-18 11:09 33.608225 -115.679556 67 7514ft 163kts
04-Mar-18 11:10 33.620871 -115.626125 77 7531ft 172kts
04-Mar-18 11:11 33.624262 -115.569249 92 7533ft 175kts
04-Mar-18 11:12 33.617040 -115.511925 104 7532ft 178kts
04-Mar-18 11:13 33.604264 -115.456157 99 7524ft 171kts
04-Mar-18 11:14 33.601773 -115.398905 85 7529ft 178kts
04-Mar-18 11:15 33.602988 -115.341420 85 7525ft 172kts
04-Mar-18 11:16 33.605651 -115.284096 83 7525ft 174kts
04-Mar-18 11:17 33.606209 -115.226264 93 7526ft 177kts
04-Mar-18 11:18 33.603607 -115.167889 90 7525ft 177kts
04-Mar-18 11:19 33.602515 -115.110710 92 7305ft 173kts
04-Mar-18 11:20 33.600302 -115.052859 87 6455ft 172kts
04-Mar-18 11:21 33.601010 -114.995487 88 5691ft 171kts
04-Mar-18 11:22 33.598629 -114.938553 89 5013ft 171kts
04-Mar-18 11:23 33.598557 -114.884535 87 3810ft 152kts
04-Mar-18 11:24 33.596991 -114.835108 87 3042ft 140kts
04-Mar-18 11:25 33.596867 -114.794251 92 2523ft 119kts
04-Mar-18 11:26 33.587928 -114.758675 106 2012ft 109kts
04-Mar-18 11:27 33.585459 -114.725188 57 1320ft 95kts
04-Mar-18 11:28 33.605318 -114.716993 358 663ft 78kts
04-Mar-18 11:29 33.620922 -114.716752 3 400ft 17kts
04-Mar-18 11:30 33.619246 -114.716488 100 400ft 10kts
04-Mar-18 11:31 33.616790 -114.715143 180 400ft 18kts
04-Mar-18 11:32 33.614344 -114.714610 168 400ft 0kts
04-Mar-18 11:33 33.614344 -114.714610 168 400ft 0kts
04-Mar-18 11:34 33.614344 -114.714610 168 400ft 0kts
04-Mar-18 11:35 33.614344 -114.714610 168 400ft 0kts
04-Mar-18 11:36 33.614344 -114.714610 168 400ft 0kts
04-Mar-18 11:37 33.614344 -114.714610 168 400ft 0kts
04-Mar-18 11:38 33.614344 -114.714610 168 400ft 0kts
04-Mar-18 11:39 33.614344 -114.714610 168 400ft 0kts
04-Mar-18 11:40 33.614344 -114.714610 168 400ft 0kts
04-Mar-18 11:41 33.614344 -114.714610 168 400ft 0kts
04-Mar-18 11:42 33.614344 -114.714610 168 400ft 0kts
04-Mar-18 11:43 33.614344 -114.714610 168 400ft 0kts
04-Mar-18 11:44 33.614344 -114.714610 168 400ft 0kts

Navigation Log

Ident Type
Flight plan parsing failed, navigation log unavailable